< Cyclone 198415 1984 Season Cyclone 198417 >
Cyclone 198416 (CHLOE)
General InformationTrack Information on Google MapsDetailed Wind InformationList of All Images || ResourceGoogle EarthGE AnimationAtom FeedGeoJSON
Detalied Best Track (Time Zone = UTC)
Year Month Day Hour Lat. Long. Pressure (hPa) Wind (kt) Class Image Chart
1984 2 25 21 -13.9 123.7 1002 25 2 Image --
1984 2 26 00 -14.0 123.5 1002 25 2 Image --
1984 2 26 03 -14.2 123.4 1001 25 2 Image --
1984 2 26 06 -14.3 123.3 998 30 2 Image --
1984 2 26 09 -14.2 123.2 994 40 3 Image --
1984 2 26 12 -14.4 123.2 990 45 3 Image --
1984 2 26 15 -14.6 123.3 985 50 4 Image --
1984 2 26 18 -14.9 123.4 980 55 4 Image --
1984 2 26 21 -15.1 123.5 980 55 4 Image --
1984 2 27 00 -15.3 123.4 980 55 4 Image --
1984 2 27 03 -15.6 123.3 980 55 4 Image --
1984 2 27 06 -15.9 123.3 980 55 4 Image --
1984 2 27 09 -16.1 123.3 980 55 4 Image --
1984 2 27 12 -16.3 123.1 980 55 4 Image --
1984 2 27 15 -16.4 122.8 980 55 4 Image --
1984 2 27 18 -16.7 122.3 980 55 4 Image --
1984 2 27 21 -17.0 121.9 980 55 4 Image --
1984 2 28 00 -17.4 121.4 975 65 5 Image --
1984 2 28 03 -17.7 120.9 975 65 5 Image --
1984 2 28 06 -17.9 120.5 975 65 5 Image --
1984 2 28 09 -18.0 120.3 975 65 5 Image --
1984 2 28 12 -18.1 119.8 975 65 5 Image --
1984 2 28 15 -18.4 119.5 973 65 5 Image --
1984 2 28 18 -18.8 119.0 968 70 5 Image --
1984 2 28 21 -19.2 118.7 960 80 5 Image --
1984 2 29 00 -19.4 118.3 955 90 5 Image --
1984 2 29 03 -19.6 118.1 955 90 5 Image --
1984 2 29 06 -19.8 117.9 955 90 5 Image --
1984 2 29 09 -20.1 117.6 955 90 5 Image --
1984 2 29 12 -20.5 117.4 955 90 5 Image --
1984 2 29 15 -20.9 117.1 958 90 5 Image --
1984 2 29 18 -21.1 116.8 965 75 5 Image --
1984 2 29 21 -21.3 116.5 970 60 4 Image --
1984 3 1 00 -21.7 116.1 975 50 4 Image --
1984 3 1 03 -21.8 115.8 975 40 3 Image --
1984 3 1 06 -22.0 115.5 990 30 2 Image --
1984 3 1 09 -22.3 115.2 990 30 2 Image --
1984 3 1 12 -22.5 114.8 996 30 2 Image --
1984 3 1 15 -22.7 114.6 998 30 2 Image --
1984 3 1 18 -22.7 114.2 999 30 2 Image --
1984 3 1 21 -22.8 113.9 1000 30 2 Image --
1984 3 2 00 -22.9 113.8 999 30 2 Image --
1984 3 2 03 -22.9 113.8 999 25 2 Image --
1984 3 2 06 -22.8 113.8 999 25 2 Image --
1984 3 2 09 -22.8 113.8 999 25 2 Image --
1984 3 2 12 -22.8 113.8 1000 25 2 Image --
1984 3 2 15 -22.9 113.8 1001 25 2 Image --
1984 3 2 18 -22.9 113.9 1001 25 2 Image --
1984 3 2 21 -22.9 113.9 1001 25 2 Image --
1984 3 3 00 -22.9 113.9 1001 25 2 Image --
1984 3 3 03 -22.9 113.9 1001 20 2 Image --
1984 3 3 06 -23.0 113.9 1001 20 2 Image --
1984 3 3 09 -23.1 114.0 1000 20 2 Image --
1984 3 3 12 -23.1 114.2 1002 20 2 Image --
1984 3 3 15 -23.1 114.7 1002 20 2 Image --
< Cyclone 198415 1984 Season Cyclone 198417 >

Help